createdAt,value
2019-03-18T00:02:19.768Z,34.37
2019-03-18T00:04:52.600Z,32.87
2019-03-18T00:07:23.919Z,34.57
2019-03-18T00:09:55.151Z,36.53
2019-03-18T00:12:26.422Z,34.80
2019-03-18T00:15:01.499Z,40.70
2019-03-18T00:17:30.669Z,47.20
2019-03-18T00:20:01.949Z,78.13
2019-03-18T00:22:33.151Z,33.80
2019-03-18T00:25:06.257Z,33.30
2019-03-18T00:27:37.565Z,35.13
2019-03-18T00:30:21.562Z,35.13
2019-03-18T00:32:53.528Z,37.27
2019-03-18T00:35:24.776Z,253.30
2019-03-18T00:37:55.987Z,97.50
2019-03-18T00:40:27.237Z,40.53
2019-03-18T00:42:58.527Z,38.20
2019-03-18T00:45:29.726Z,47.97
2019-03-18T00:48:01.013Z,91.87
2019-03-18T00:50:32.315Z,167.83
2019-03-18T00:53:03.627Z,96.57
2019-03-18T00:55:34.929Z,37.80
2019-03-18T00:58:06.150Z,32.43
2019-03-18T01:00:37.430Z,31.03
2019-03-18T01:03:08.683Z,29.73
2019-03-18T01:05:40.015Z,29.60
2019-03-18T01:08:12.965Z,31.30
2019-03-18T01:10:44.224Z,31.93
2019-03-18T01:13:15.405Z,29.87
2019-03-18T01:15:46.676Z,28.03
2019-03-18T01:18:17.845Z,26.00
2019-03-18T01:20:49.172Z,30.33
2019-03-18T01:23:20.366Z,34.90
2019-03-18T01:25:52.834Z,29.83
2019-03-18T01:28:24.128Z,31.70
2019-03-18T01:30:55.471Z,40.20
2019-03-18T01:33:27.469Z,50.90
2019-03-18T01:35:58.622Z,51.83
2019-03-18T01:38:29.933Z,52.80
2019-03-18T01:41:01.159Z,58.53
2019-03-18T01:43:32.414Z,59.27
2019-03-18T01:46:03.811Z,61.50
2019-03-18T01:48:35.107Z,60.20
2019-03-18T01:51:06.513Z,67.60
2019-03-18T01:53:37.764Z,66.70
2019-03-18T01:56:08.998Z,73.77
2019-03-18T01:58:40.346Z,73.60
2019-03-18T02:01:11.566Z,70.57
2019-03-18T02:03:42.833Z,77.80
2019-03-18T02:06:14.081Z,73.63
2019-03-18T02:08:45.349Z,63.87
2019-03-18T02:11:16.653Z,61.80
2019-03-18T02:13:47.995Z,67.07
2019-03-18T02:16:19.391Z,62.97
2019-03-18T02:18:50.641Z,85.13
2019-03-18T02:21:21.947Z,86.97
2019-03-18T02:23:53.212Z,85.23
2019-03-18T02:26:24.500Z,70.20
2019-03-18T02:28:55.795Z,66.23
2019-03-18T02:31:27.157Z,65.53
2019-03-18T02:33:58.530Z,69.37
2019-03-18T02:36:29.861Z,68.17
2019-03-18T02:39:02.307Z,66.60
2019-03-18T02:41:34.678Z,72.03
2019-03-18T02:44:05.982Z,56.90
2019-03-18T02:46:37.255Z,54.20
2019-03-18T02:49:09.744Z,56.70
2019-03-18T02:51:41.039Z,63.43
2019-03-18T02:54:12.288Z,62.77
2019-03-18T02:56:43.652Z,63.17
2019-03-18T02:59:14.933Z,63.63
2019-03-18T03:01:46.182Z,68.40
2019-03-18T03:04:17.459Z,62.27
2019-03-18T03:06:48.681Z,63.97
2019-03-18T03:09:20.008Z,55.80
2019-03-18T03:11:51.239Z,59.57
2019-03-18T03:14:22.447Z,54.73
2019-03-18T03:16:53.731Z,61.93
2019-03-18T03:19:24.950Z,59.57
2019-03-18T03:21:56.256Z,61.27
2019-03-18T03:24:27.464Z,61.17
2019-03-18T03:26:58.909Z,59.67
2019-03-18T03:29:32.099Z,57.60
2019-03-18T03:32:03.284Z,61.93
2019-03-18T03:34:34.492Z,62.70
2019-03-18T03:37:05.871Z,60.07
2019-03-18T03:39:37.288Z,58.63
2019-03-18T03:42:08.597Z,89.27
2019-03-18T03:44:39.898Z,70.70
2019-03-18T03:47:11.443Z,83.67
2019-03-18T03:49:42.992Z,114.97
2019-03-18T03:52:14.308Z,93.50
2019-03-18T03:54:45.600Z,121.93
2019-03-18T03:57:16.890Z,147.73
2019-03-18T03:59:48.241Z,123.63
2019-03-18T04:02:19.526Z,162.50
2019-03-18T04:04:50.800Z,376.53
2019-03-18T04:07:22.096Z,142.30
2019-03-18T04:09:53.431Z,91.27
2019-03-18T04:12:24.637Z,84.27
2019-03-18T04:14:55.849Z,71.97
2019-03-18T04:17:27.186Z,101.70
2019-03-18T04:19:58.369Z,72.23
2019-03-18T04:22:29.590Z,80.40
2019-03-18T04:25:00.869Z,79.70
2019-03-18T04:27:32.213Z,74.87
2019-03-18T04:30:06.326Z,67.43
2019-03-18T04:32:37.588Z,62.17
2019-03-18T04:35:08.803Z,66.47
2019-03-18T04:37:40.272Z,66.80
2019-03-18T04:40:12.438Z,62.17
2019-03-18T04:42:43.714Z,61.73
2019-03-18T04:45:14.874Z,62.10
2019-03-18T04:47:46.319Z,59.90
2019-03-18T04:50:17.538Z,58.10
2019-03-18T04:52:49.143Z,58.80
2019-03-18T04:55:20.410Z,61.73
2019-03-18T04:57:51.760Z,61.73
2019-03-18T05:00:22.888Z,65.97
2019-03-18T05:02:54.167Z,61.70
2019-03-18T05:05:26.137Z,60.97
2019-03-18T05:07:57.420Z,60.23
2019-03-18T05:10:28.771Z,52.33
2019-03-18T05:12:59.984Z,50.93
2019-03-18T05:15:31.239Z,46.67
2019-03-18T05:18:02.522Z,49.97
2019-03-18T05:20:33.806Z,51.10
2019-03-18T05:23:05.138Z,49.07
2019-03-18T05:25:36.378Z,48.60
2019-03-18T05:28:07.791Z,53.57
2019-03-18T05:30:39.132Z,50.97
2019-03-18T05:33:10.580Z,52.67
2019-03-18T05:35:41.798Z,72.87
2019-03-18T05:38:13.150Z,55.63
2019-03-18T05:40:44.332Z,55.77
2019-03-18T05:43:15.686Z,54.40
2019-03-18T05:45:46.906Z,55.00
2019-03-18T05:48:19.422Z,62.13
2019-03-18T05:50:50.751Z,53.30
2019-03-18T05:53:22.000Z,55.33
2019-03-18T05:55:53.447Z,58.10
2019-03-18T05:58:24.919Z,57.53
2019-03-18T06:00:56.030Z,52.83
2019-03-18T06:03:27.281Z,53.53
2019-03-18T06:05:58.496Z,53.50
2019-03-18T06:08:29.722Z,48.60
2019-03-18T06:11:01.463Z,52.37
2019-03-18T06:13:32.821Z,53.13
2019-03-18T06:16:04.156Z,48.07
2019-03-18T06:18:35.288Z,49.30
2019-03-18T06:21:06.726Z,44.50
2019-03-18T06:23:37.923Z,51.00
2019-03-18T06:26:10.422Z,47.17
2019-03-18T06:28:43.263Z,47.10
2019-03-18T06:31:14.464Z,47.23
2019-03-18T06:33:45.733Z,44.20
2019-03-18T06:36:17.099Z,40.77
2019-03-18T06:38:48.420Z,41.20
2019-03-18T06:41:19.564Z,42.83
2019-03-18T06:43:52.597Z,37.77
2019-03-18T06:46:23.881Z,39.17
2019-03-18T06:48:55.124Z,41.23
2019-03-18T06:51:27.759Z,40.10
2019-03-18T06:54:01.975Z,40.28
2019-03-18T06:56:33.396Z,42.50
2019-03-18T06:59:04.692Z,41.23
2019-03-18T07:01:35.871Z,45.38
2019-03-18T07:04:07.015Z,42.25
2019-03-18T07:06:41.428Z,44.75
2019-03-18T07:09:12.618Z,45.25
2019-03-18T07:11:44.576Z,47.90
2019-03-18T07:14:15.784Z,44.53
2019-03-18T07:16:49.780Z,50.25
2019-03-18T07:19:22.123Z,50.33
2019-03-18T07:21:53.481Z,54.90
2019-03-18T07:24:24.764Z,53.92
2019-03-18T07:26:57.409Z,53.52
2019-03-18T07:29:28.750Z,54.35
2019-03-18T07:32:03.023Z,52.38
2019-03-18T07:34:34.506Z,48.48
2019-03-18T07:37:05.751Z,45.48
2019-03-18T07:39:36.984Z,40.38
2019-03-18T07:42:08.209Z,33.48
2019-03-18T07:44:39.408Z,34.18
2019-03-18T07:47:10.796Z,32.17
2019-03-18T07:49:42.148Z,28.45
2019-03-18T07:52:13.474Z,30.17
2019-03-18T07:54:44.577Z,24.92
2019-03-18T07:57:19.782Z,23.40
2019-03-18T07:59:51.071Z,25.25
2019-03-18T08:02:22.348Z,21.93
2019-03-18T08:04:53.596Z,23.02
2019-03-18T08:07:24.731Z,26.48
2019-03-18T08:09:55.985Z,24.20
2019-03-18T08:12:28.481Z,23.22
2019-03-18T08:14:59.808Z,19.62
2019-03-18T08:17:31.151Z,25.27
2019-03-18T08:20:03.553Z,20.48
2019-03-18T08:22:34.986Z,23.27
2019-03-18T08:25:07.916Z,17.52
2019-03-18T08:27:40.898Z,17.10
2019-03-18T08:30:17.162Z,16.80
2019-03-18T08:32:48.391Z,17.15
2019-03-18T08:35:19.591Z,20.68
2019-03-18T08:37:50.976Z,16.17
2019-03-18T08:40:22.335Z,14.00
2019-03-18T08:42:53.714Z,14.35
2019-03-18T08:45:25.046Z,16.23
2019-03-18T08:47:56.778Z,12.03
2019-03-18T08:50:28.494Z,12.75
2019-03-18T08:52:59.869Z,13.22
2019-03-18T08:55:32.506Z,15.58
2019-03-18T08:58:03.785Z,15.05
2019-03-18T09:00:34.910Z,13.83
2019-03-18T09:03:06.236Z,17.60
2019-03-18T09:05:37.732Z,13.32
2019-03-18T09:08:08.930Z,15.70
2019-03-18T09:10:40.196Z,16.27
2019-03-18T09:13:11.566Z,16.50
2019-03-18T09:15:44.301Z,13.68
2019-03-18T09:18:15.514Z,14.78
2019-03-18T09:20:46.747Z,14.90
2019-03-18T09:23:17.992Z,14.80
2019-03-18T09:25:49.225Z,13.18
2019-03-18T09:28:22.349Z,14.10
2019-03-18T09:30:53.772Z,13.32
2019-03-18T09:33:25.092Z,13.00
2019-03-18T09:35:57.553Z,12.90
2019-03-18T09:38:28.819Z,8.40
2019-03-18T09:40:59.960Z,10.65
2019-03-18T09:43:31.626Z,11.80
2019-03-18T09:46:02.857Z,13.43
2019-03-18T09:48:34.147Z,11.68
2019-03-18T09:51:05.564Z,12.37
2019-03-18T09:53:37.773Z,12.50
2019-03-18T09:56:09.190Z,11.35
2019-03-18T09:58:40.442Z,10.53
2019-03-18T10:01:11.750Z,8.40
2019-03-18T10:03:42.862Z,8.43
2019-03-18T10:06:14.271Z,9.00
2019-03-18T10:08:45.552Z,8.68
2019-03-18T10:11:18.091Z,6.30
2019-03-18T10:13:49.271Z,4.53
2019-03-18T10:16:20.763Z,5.15
2019-03-18T10:18:51.954Z,5.53
2019-03-18T10:21:23.169Z,4.53
2019-03-18T10:23:54.454Z,6.15
2019-03-18T10:26:25.581Z,4.35
2019-03-18T10:28:56.656Z,5.17
2019-03-18T10:31:27.979Z,5.83
2019-03-18T10:33:59.161Z,6.12
2019-03-18T10:36:30.390Z,6.62
2019-03-18T10:39:01.581Z,6.87
2019-03-18T10:41:34.353Z,6.65
2019-03-18T10:44:05.583Z,6.37
2019-03-18T10:46:36.669Z,6.92
2019-03-18T10:49:07.763Z,7.20
2019-03-18T10:51:38.971Z,7.60
2019-03-18T10:54:11.538Z,7.42
2019-03-18T10:56:42.572Z,8.33
2019-03-18T10:59:13.840Z,9.30
2019-03-18T11:01:45.038Z,10.95
2019-03-18T11:04:16.554Z,10.48
2019-03-18T11:06:47.878Z,10.20
2019-03-18T11:09:19.156Z,8.85
2019-03-18T11:11:50.546Z,10.60
2019-03-18T11:14:21.736Z,10.88
2019-03-18T11:16:53.022Z,12.40
2019-03-18T11:19:24.243Z,12.55
2019-03-18T11:21:55.589Z,12.65
2019-03-18T11:24:27.007Z,14.75
2019-03-18T11:26:59.000Z,15.70
2019-03-18T11:29:30.341Z,13.75
2019-03-18T11:32:01.493Z,16.10
2019-03-18T11:34:33.253Z,17.60
2019-03-18T11:37:04.462Z,16.73
2019-03-18T11:39:35.701Z,16.17
2019-03-18T11:42:06.830Z,15.60
2019-03-18T11:44:38.128Z,16.65
2019-03-18T11:47:09.421Z,16.48
2019-03-18T11:49:40.645Z,15.60
2019-03-18T11:52:11.803Z,15.38
2019-03-18T11:54:43.054Z,15.45
2019-03-18T11:57:14.373Z,14.68
2019-03-18T11:59:46.786Z,14.25
2019-03-18T12:02:27.271Z,12.37
2019-03-18T12:04:51.423Z,13.95
2019-03-18T12:07:23.017Z,13.83
2019-03-18T12:09:54.457Z,14.07
2019-03-18T12:12:25.657Z,12.18
2019-03-18T12:14:56.912Z,12.85
2019-03-18T12:17:30.489Z,8.10
2019-03-18T12:20:01.721Z,7.97
2019-03-18T12:22:35.525Z,7.70
2019-03-18T12:25:08.530Z,8.15
2019-03-18T12:27:39.686Z,8.25
2019-03-18T12:30:21.759Z,9.93
2019-03-18T12:32:53.383Z,9.48
2019-03-18T12:35:24.661Z,10.25
2019-03-18T12:37:55.981Z,11.35
2019-03-18T12:40:27.293Z,9.78
2019-03-18T12:42:58.682Z,10.30
2019-03-18T12:45:29.865Z,9.70
2019-03-18T12:48:01.376Z,9.15
2019-03-18T12:50:49.040Z,9.83
2019-03-18T12:53:05.522Z,7.22
2019-03-18T12:55:37.362Z,6.80
2019-03-18T12:58:08.569Z,11.90
2019-03-18T13:00:41.038Z,7.10
2019-03-18T13:03:13.399Z,7.45
2019-03-18T13:05:44.489Z,7.58
2019-03-18T13:08:15.783Z,10.00
2019-03-18T13:10:48.114Z,6.17
2019-03-18T13:13:19.270Z,6.60
2019-03-18T13:15:51.656Z,5.75
2019-03-18T13:18:22.722Z,6.75
2019-03-18T13:21:07.076Z,6.62
2019-03-18T13:23:27.435Z,7.37
2019-03-18T13:25:58.514Z,7.67
2019-03-18T13:28:29.640Z,8.90
2019-03-18T13:31:00.839Z,6.65
2019-03-18T13:33:32.062Z,7.05
2019-03-18T13:36:03.206Z,6.72
2019-03-18T13:38:34.399Z,6.35
2019-03-18T13:41:05.498Z,6.25
2019-03-18T13:43:37.152Z,6.60
2019-03-18T13:46:08.251Z,6.28
2019-03-18T13:48:39.590Z,5.87
2019-03-18T13:51:20.351Z,5.80
2019-03-18T13:56:15.060Z,6.25
2019-03-18T13:58:47.511Z,7.10
2019-03-18T14:01:20.245Z,6.62
2019-03-18T14:03:51.441Z,8.25
2019-03-18T14:06:22.811Z,5.83
2019-03-18T14:08:54.247Z,5.92
2019-03-18T14:11:27.878Z,5.30
2019-03-18T14:13:59.146Z,6.00
2019-03-18T14:16:31.464Z,6.67
2019-03-18T14:19:02.651Z,6.42
2019-03-18T14:21:33.890Z,8.68
2019-03-18T14:24:05.033Z,13.13
2019-03-18T14:26:36.418Z,7.70
2019-03-18T14:29:07.629Z,6.25
2019-03-18T14:31:38.830Z,6.37
2019-03-18T14:34:09.933Z,7.30
2019-03-18T14:36:41.270Z,6.10
2019-03-18T14:39:12.525Z,6.05
2019-03-18T14:41:44.046Z,9.70
2019-03-18T14:44:15.383Z,49.90
2019-03-18T14:46:47.264Z,36.88
2019-03-18T14:49:18.660Z,12.05
2019-03-18T14:51:49.861Z,28.80
2019-03-18T14:54:21.057Z,30.72
2019-03-18T14:56:52.399Z,35.08
2019-03-18T14:59:23.638Z,32.95
2019-03-18T15:01:54.947Z,8.48
2019-03-18T15:04:26.198Z,7.95
2019-03-18T15:06:57.390Z,37.15
2019-03-18T15:09:28.623Z,56.65
2019-03-18T15:11:59.924Z,62.60
2019-03-18T15:14:31.292Z,50.38
2019-03-18T15:17:02.669Z,14.18
2019-03-18T15:19:33.940Z,14.65
2019-03-18T15:22:06.045Z,8.93
2019-03-18T15:24:37.810Z,8.43
2019-03-18T15:27:09.083Z,8.48
2019-03-18T15:29:41.495Z,8.53
2019-03-18T15:32:12.700Z,9.43
2019-03-18T15:34:43.980Z,12.43
2019-03-18T15:37:15.289Z,12.47
2019-03-18T15:39:47.743Z,13.75
2019-03-18T15:42:19.105Z,18.85
2019-03-18T15:44:50.494Z,21.35
2019-03-18T15:47:23.907Z,38.13
2019-03-18T15:49:55.139Z,18.90
2019-03-18T15:52:27.526Z,19.45
2019-03-18T15:54:58.803Z,16.97
2019-03-18T15:57:30.201Z,19.25
2019-03-18T16:00:01.382Z,16.25
2019-03-18T16:02:32.698Z,16.42
2019-03-18T16:05:04.823Z,17.52
2019-03-18T16:07:36.057Z,17.07
2019-03-18T16:10:18.794Z,15.05
2019-03-18T16:12:51.225Z,19.20
2019-03-18T16:15:23.126Z,23.87
2019-03-18T16:17:54.397Z,27.70
2019-03-18T16:20:27.075Z,29.55
2019-03-18T16:22:58.216Z,40.23
2019-03-18T16:25:29.501Z,29.70
2019-03-18T16:28:00.749Z,32.95
2019-03-18T16:30:32.216Z,30.25
2019-03-18T16:33:03.421Z,29.40
2019-03-18T16:35:34.722Z,27.15
2019-03-18T16:38:06.071Z,27.50
2019-03-18T16:40:37.433Z,26.65
2019-03-18T16:43:08.768Z,21.50
2019-03-18T16:45:40.049Z,20.35
2019-03-18T16:48:12.578Z,21.10
2019-03-18T16:50:43.899Z,17.98
2019-03-18T16:53:20.791Z,15.40
2019-03-18T16:55:53.951Z,16.60
2019-03-18T16:58:25.268Z,16.30
2019-03-18T17:00:56.944Z,16.93
2019-03-18T17:03:28.201Z,17.32
2019-03-18T17:06:01.126Z,17.70
2019-03-18T17:08:32.421Z,19.20
2019-03-18T17:11:04.833Z,33.95
2019-03-18T17:13:37.425Z,37.03
2019-03-18T17:18:44.046Z,18.42
2019-03-18T17:21:16.505Z,17.62
2019-03-18T17:23:47.724Z,18.57
2019-03-18T17:26:19.009Z,17.35
2019-03-18T17:28:50.243Z,17.82
2019-03-18T17:31:21.463Z,17.15
2019-03-18T17:33:54.210Z,15.15
2019-03-18T17:36:25.561Z,16.35
2019-03-18T17:38:56.967Z,19.77
2019-03-18T17:41:28.307Z,18.82
2019-03-18T17:43:59.626Z,16.23
2019-03-18T17:46:31.662Z,14.80
2019-03-18T17:49:03.025Z,15.60
2019-03-18T17:51:37.135Z,13.50
2019-03-18T17:54:08.322Z,18.05
2019-03-18T17:56:39.617Z,22.22
2019-03-18T17:59:12.888Z,16.90
2019-03-18T18:01:44.577Z,15.32
2019-03-18T18:04:15.950Z,15.28
2019-03-18T18:06:47.272Z,15.00
2019-03-18T18:09:18.560Z,15.30
2019-03-18T18:11:51.463Z,15.40
2019-03-18T18:14:22.705Z,14.00
2019-03-18T18:16:54.023Z,14.98
2019-03-18T18:19:38.440Z,15.70
2019-03-18T18:22:11.479Z,15.58
2019-03-18T18:24:42.816Z,15.28
2019-03-18T18:27:14.918Z,17.12
2019-03-18T18:29:50.731Z,16.00
2019-03-18T18:32:22.571Z,17.57
2019-03-18T18:34:53.920Z,17.57
2019-03-18T18:37:25.442Z,18.15
2019-03-18T18:39:59.485Z,19.17
2019-03-18T18:42:31.394Z,20.30
2019-03-18T18:45:03.661Z,17.55
2019-03-18T18:47:36.614Z,17.23
2019-03-18T18:50:09.953Z,16.85
2019-03-18T18:52:41.214Z,17.17
2019-03-18T18:55:14.643Z,17.07
2019-03-18T18:57:45.883Z,16.52
2019-03-18T19:00:21.417Z,17.30
2019-03-18T19:02:52.739Z,16.45
2019-03-18T19:05:25.594Z,17.30
2019-03-18T19:07:57.697Z,15.35
2019-03-18T19:10:30.631Z,17.23
2019-03-18T19:13:01.959Z,15.90
2019-03-18T19:15:40.544Z,16.17
